Time;durP1;ratioP1;P1;durP2;ratioP2;P2;SDS_P1;SDS_P2;PMS_P1;PMS_P2;Temp;Humidity;BMP_temperature;BMP_pressure;BME280_temperature;BME280_humidity;BME280_pressure;Samples;Min_cycle;Max_cycle;Signal;HPM_P1;HPM_P2
2021/11/25 00:00:51;;;;;;;68.97;44.80;;;6.20;99.90;;;;;;5052965;28;20039;-70
2021/11/25 00:03:16;;;;;;;63.22;43.20;;;6.20;99.90;;;;;;5078807;28;20555;-70
2021/11/25 00:05:42;;;;;;;70.72;44.97;;;6.20;99.90;;;;;;5067179;28;20079;-70
2021/11/25 00:08:08;;;;;;;66.95;43.95;;;6.20;99.90;;;;;;5052724;28;20112;-71
2021/11/25 00:10:35;;;;;;;73.38;44.22;;;6.20;99.90;;;;;;5085633;28;20119;-70
2021/11/25 00:13:01;;;;;;;72.90;46.03;;;6.20;99.90;;;;;;5052503;28;20206;-71
2021/11/25 00:15:27;;;;;;;72.72;47.22;;;6.20;99.90;;;;;;5079215;28;20139;-71
2021/11/25 00:17:53;;;;;;;79.95;48.88;;;6.10;99.90;;;;;;5050572;28;20040;-70
2021/11/25 00:20:22;;;;;;;76.10;47.77;;;6.20;99.90;;;;;;5055224;28;20055;-70
2021/11/25 00:22:48;;;;;;;78.25;48.10;;;6.20;99.90;;;;;;5059337;28;20459;-70
2021/11/25 00:25:14;;;;;;;77.18;48.95;;;6.10;99.90;;;;;;5078803;28;20150;-70
2021/11/25 00:27:40;;;;;;;78.47;48.72;;;6.20;99.90;;;;;;5069869;28;20036;-70
2021/11/25 00:30:07;;;;;;;67.95;44.85;;;6.10;99.90;;;;;;5056985;28;20041;-70
2021/11/25 00:32:34;;;;;;;70.30;46.35;;;6.20;99.90;;;;;;5074482;28;20076;-70
2021/11/25 00:35:00;;;;;;;73.93;48.78;;;6.10;99.90;;;;;;5066270;28;20094;-71
2021/11/25 00:37:26;;;;;;;76.75;49.42;;;6.20;99.90;;;;;;5066022;28;20044;-70
2021/11/25 00:39:51;;;;;;;75.40;48.05;;;6.10;99.90;;;;;;5049831;28;20061;-71
2021/11/25 00:42:17;;;;;;;79.40;49.20;;;6.20;99.90;;;;;;5077043;28;20047;-70
2021/11/25 00:44:43;;;;;;;71.30;45.45;;;6.10;99.90;;;;;;5052351;28;21032;-70
2021/11/25 00:47:09;;;;;;;80.22;50.10;;;6.10;99.90;;;;;;5052593;28;20421;-70
2021/11/25 00:49:35;;;;;;;75.82;48.20;;;6.20;99.90;;;;;;5053865;28;20123;-70
2021/11/25 00:52:01;;;;;;;79.13;48.75;;;6.20;99.90;;;;;;5070964;28;20127;-70
2021/11/25 00:54:27;;;;;;;76.35;49.00;;;6.10;99.90;;;;;;5069414;28;20127;-70
2021/11/25 00:56:52;;;;;;;79.95;48.95;;;6.20;99.90;;;;;;5052455;28;20036;-70
2021/11/25 00:59:18;;;;;;;76.90;47.67;;;6.10;99.90;;;;;;5085715;28;20371;-70
2021/11/25 01:01:44;;;;;;;76.32;48.75;;;6.10;99.90;;;;;;5051393;28;20117;-70
2021/11/25 01:04:10;;;;;;;83.15;50.60;;;6.10;99.90;;;;;;5074852;28;20044;-70
2021/11/25 01:06:36;;;;;;;78.57;47.95;;;6.20;99.90;;;;;;5062237;28;20093;-70
2021/11/25 01:09:02;;;;;;;72.38;46.80;;;6.10;99.90;;;;;;5049975;28;20045;-70
2021/11/25 01:11:31;;;;;;;79.97;49.33;;;6.10;99.90;;;;;;5052290;28;20056;-71
2021/11/25 01:13:57;;;;;;;77.90;47.50;;;6.10;99.90;;;;;;5057617;28;20048;-70
2021/11/25 01:16:23;;;;;;;78.25;49.90;;;6.10;99.90;;;;;;5082886;28;20036;-70
2021/11/25 01:18:50;;;;;;;78.05;46.90;;;6.10;99.90;;;;;;5064288;28;20044;-70
2021/11/25 01:21:17;;;;;;;75.78;47.83;;;6.10;99.90;;;;;;5050840;28;20048;-70
2021/11/25 01:23:43;;;;;;;80.38;47.97;;;6.10;99.90;;;;;;5069412;28;20182;-70
2021/11/25 01:26:09;;;;;;;79.70;47.22;;;6.10;99.90;;;;;;5059016;28;20550;-70
2021/11/25 01:28:35;;;;;;;78.32;48.03;;;6.10;99.90;;;;;;5051564;28;20044;-70
2021/11/25 01:31:02;;;;;;;78.18;48.08;;;6.10;99.90;;;;;;5052789;28;20040;-70
2021/11/25 01:33:30;;;;;;;76.90;46.95;;;6.10;99.90;;;;;;5054620;28;20060;-70
2021/11/25 01:35:58;;;;;;;78.50;47.58;;;6.10;99.90;;;;;;5061571;28;20044;-71
2021/11/25 01:38:25;;;;;;;87.65;49.75;;;6.10;99.90;;;;;;5085646;28;20063;-70
2021/11/25 01:40:53;;;;;;;78.95;48.10;;;6.10;99.90;;;;;;5068119;28;20040;-70
2021/11/25 01:43:22;;;;;;;73.88;46.53;;;6.10;99.90;;;;;;5078641;28;20494;-70
2021/11/25 01:45:50;;;;;;;80.43;49.42;;;6.10;99.90;;;;;;5071501;28;20469;-70
2021/11/25 01:48:17;;;;;;;80.78;49.22;;;6.00;99.90;;;;;;5074580;28;20395;-73
2021/11/25 01:50:44;;;;;;;82.18;49.83;;;6.10;99.90;;;;;;5077981;28;20048;-73
2021/11/25 01:53:11;;;;;;;88.60;49.85;;;6.00;99.90;;;;;;5068288;28;20359;-73
2021/11/25 01:55:37;;;;;;;88.47;50.50;;;6.00;99.90;;;;;;5077236;28;20052;-73
2021/11/25 01:58:03;;;;;;;83.05;49.55;;;6.00;99.90;;;;;;5050704;28;20054;-73
2021/11/25 02:00:40;;;;;;;86.32;49.80;;;6.00;99.90;;;;;;5072706;28;20127;-73
2021/11/25 02:03:07;;;;;;;85.80;50.17;;;6.00;99.90;;;;;;5061435;28;20154;-73
2021/11/25 02:05:37;;;;;;;87.22;50.78;;;6.00;99.90;;;;;;5059350;28;20055;-72
2021/11/25 02:08:04;;;;;;;88.78;51.13;;;6.00;99.90;;;;;;5050142;28;20036;-73
2021/11/25 02:10:30;;;;;;;85.93;49.20;;;6.00;99.90;;;;;;5075160;28;20039;-72
2021/11/25 02:12:56;;;;;;;90.35;51.60;;;6.00;99.90;;;;;;5067638;28;20438;-70
2021/11/25 02:15:22;;;;;;;89.25;50.60;;;6.00;99.90;;;;;;5070653;28;20110;-70
2021/11/25 02:17:49;;;;;;;92.10;51.40;;;6.00;99.90;;;;;;5048250;28;20903;-70
2021/11/25 02:20:15;;;;;;;91.10;52.15;;;6.00;99.90;;;;;;5060082;28;20127;-70
2021/11/25 02:22:42;;;;;;;89.85;52.33;;;6.00;99.90;;;;;;5052553;28;20033;-70
2021/11/25 02:25:10;;;;;;;97.70;53.30;;;6.00;99.90;;;;;;5057916;28;20040;-70
2021/11/25 02:27:37;;;;;;;97.47;53.73;;;5.90;99.90;;;;;;5084764;28;20044;-70
2021/11/25 02:30:05;;;;;;;102.93;53.53;;;6.00;99.90;;;;;;5035521;28;20043;-70
2021/11/25 02:32:36;;;;;;;100.70;54.60;;;5.90;99.90;;;;;;5047108;28;20120;-71
2021/11/25 02:35:05;;;;;;;105.23;54.57;;;5.90;99.90;;;;;;5055426;28;20079;-70
2021/11/25 02:37:31;;;;;;;106.57;55.88;;;5.90;99.90;;;;;;5067370;28;20535;-70
2021/11/25 02:39:57;;;;;;;104.20;55.03;;;5.90;99.90;;;;;;5067083;28;20043;-70
2021/11/25 02:42:23;;;;;;;98.53;52.63;;;5.90;99.90;;;;;;5056551;28;20051;-70
2021/11/25 02:44:49;;;;;;;117.55;55.85;;;5.90;99.90;;;;;;5062906;28;20043;-70
2021/11/25 02:47:14;;;;;;;114.60;58.05;;;5.90;99.90;;;;;;5085117;28;20066;-70
2021/11/25 02:49:41;;;;;;;95.82;52.00;;;5.90;99.90;;;;;;5053152;28;20049;-70
2021/11/25 02:52:08;;;;;;;103.32;54.10;;;5.90;99.90;;;;;;5072953;28;20063;-70
2021/11/25 02:54:34;;;;;;;106.20;54.17;;;5.90;99.90;;;;;;5075189;28;20044;-70
2021/11/25 02:57:01;;;;;;;105.25;52.63;;;5.90;99.90;;;;;;5062198;28;20040;-70
2021/11/25 02:59:26;;;;;;;109.93;54.50;;;5.90;99.90;;;;;;5085864;28;20056;-70
2021/11/25 03:01:52;;;;;;;110.37;55.60;;;5.90;99.90;;;;;;5051202;28;20045;-70
2021/11/25 03:04:18;;;;;;;141.05;60.13;;;5.90;99.90;;;;;;5064029;28;20048;-70
2021/11/25 03:06:44;;;;;;;123.95;58.72;;;5.90;99.90;;;;;;5080858;28;20052;-71
2021/11/25 03:09:10;;;;;;;118.93;55.75;;;5.90;99.90;;;;;;5052836;28;20139;-70
2021/11/25 03:11:36;;;;;;;119.35;58.58;;;5.90;99.90;;;;;;5068801;28;20052;-70
2021/11/25 03:14:07;;;;;;;123.03;57.50;;;5.90;99.90;;;;;;5067334;28;20075;-70
2021/11/25 03:16:33;;;;;;;133.15;60.92;;;5.90;99.90;;;;;;5080363;28;20040;-70
2021/11/25 03:18:59;;;;;;;106.70;55.45;;;5.90;99.90;;;;;;5055111;28;20052;-70
2021/11/25 03:21:26;;;;;;;113.38;56.33;;;5.90;99.90;;;;;;5079627;28;20078;-70
2021/11/25 03:23:53;;;;;;;124.15;58.90;;;5.90;99.90;;;;;;5057780;28;20071;-70
2021/11/25 03:26:22;;;;;;;112.72;56.67;;;5.90;99.90;;;;;;5067936;28;20114;-70
2021/11/25 03:28:48;;;;;;;112.45;55.90;;;5.90;99.90;;;;;;5067444;28;20473;-70
2021/11/25 03:31:20;;;;;;;115.32;57.03;;;5.90;99.90;;;;;;5038864;28;20033;-71
2021/11/25 03:33:46;;;;;;;118.15;56.90;;;5.90;99.90;;;;;;5052410;28;20054;-71
2021/11/25 03:36:12;;;;;;;124.90;61.20;;;5.90;99.90;;;;;;5074872;28;20040;-70
2021/11/25 03:38:39;;;;;;;128.40;59.22;;;5.90;99.90;;;;;;5057227;28;20044;-70
2021/11/25 03:41:07;;;;;;;117.60;56.90;;;5.80;99.90;;;;;;5069593;28;20845;-70
2021/11/25 03:43:33;;;;;;;128.53;61.03;;;5.80;99.90;;;;;;5050947;28;20458;-70
2021/11/25 03:45:59;;;;;;;130.47;59.07;;;5.80;99.90;;;;;;5074635;28;20082;-70
2021/11/25 03:48:28;;;;;;;140.57;63.07;;;5.80;99.90;;;;;;5070584;28;20187;-70
2021/11/25 03:51:00;;;;;;;118.95;57.08;;;5.80;99.90;;;;;;5069708;28;20056;-70
2021/11/25 03:53:26;;;;;;;121.25;59.42;;;5.80;99.90;;;;;;5053937;28;20056;-70
2021/11/25 03:55:52;;;;;;;133.88;60.00;;;5.80;99.90;;;;;;5066990;28;20048;-70
2021/11/25 03:58:18;;;;;;;138.63;61.78;;;5.80;99.90;;;;;;5072637;28;20088;-70
2021/11/25 04:00:45;;;;;;;121.65;60.22;;;5.80;99.90;;;;;;5058082;28;20518;-70
2021/11/25 04:03:11;;;;;;;121.90;59.83;;;5.80;99.90;;;;;;5074812;28;20115;-70
2021/11/25 04:05:37;;;;;;;136.55;59.97;;;5.70;99.90;;;;;;5052369;28;20124;-70
2021/11/25 04:08:03;;;;;;;140.65;60.58;;;5.80;99.90;;;;;;5034938;28;20119;-70
2021/11/25 04:10:29;;;;;;;131.60;61.13;;;5.70;99.90;;;;;;5081639;28;20054;-70
2021/11/25 04:12:57;;;;;;;120.35;58.17;;;5.80;99.90;;;;;;5077687;28;20086;-70
2021/11/25 04:15:22;;;;;;;122.70;59.17;;;5.80;99.90;;;;;;5075004;28;20147;-70
2021/11/25 04:17:48;;;;;;;120.77;58.27;;;5.80;99.90;;;;;;5051297;28;20559;-70
2021/11/25 04:20:15;;;;;;;125.03;59.77;;;5.80;99.90;;;;;;5072521;28;20041;-70
2021/11/25 04:22:41;;;;;;;111.67;56.77;;;5.70;99.90;;;;;;5050154;28;20040;-69
2021/11/25 04:25:08;;;;;;;119.05;58.47;;;5.80;99.90;;;;;;5078837;28;20050;-70
2021/11/25 04:27:34;;;;;;;126.40;59.50;;;5.70;99.90;;;;;;5081779;28;20040;-70
2021/11/25 04:30:11;;;;;;;126.60;60.33;;;5.70;99.90;;;;;;5077789;28;20487;-69
2021/11/25 04:35:30;;;;;;;110.50;57.00;;;5.70;99.90;;;;;;5084129;28;20071;-70
2021/11/25 04:38:13;;;;;;;118.90;60.43;;;5.70;99.90;;;;;;5084110;28;20048;-70
2021/11/25 04:40:53;;;;;;;124.13;61.13;;;5.70;99.90;;;;;;5057492;28;20036;-70
2021/11/25 04:43:20;;;;;;;113.88;57.75;;;5.60;99.90;;;;;;5062430;28;20048;-70
2021/11/25 04:45:48;;;;;;;116.73;57.73;;;5.60;99.90;;;;;;5057178;28;20036;-71
2021/11/25 04:48:15;;;;;;;113.30;57.97;;;5.60;99.90;;;;;;5085924;28;20046;-71
2021/11/25 04:50:41;;;;;;;131.73;61.25;;;5.60;99.90;;;;;;5061365;28;20124;-71
2021/11/25 04:53:12;;;;;;;111.05;60.75;;;5.60;99.90;;;;;;5047998;28;20118;-71
2021/11/25 04:55:39;;;;;;;106.23;58.97;;;5.60;99.90;;;;;;5085896;28;20044;-71
2021/11/25 04:58:05;;;;;;;103.23;57.37;;;5.60;99.90;;;;;;5086149;28;20596;-71
2021/11/25 05:00:31;;;;;;;110.30;59.67;;;5.60;99.90;;;;;;5085777;28;20085;-71
2021/11/25 05:02:57;;;;;;;97.28;56.72;;;5.50;99.90;;;;;;5075205;28;20037;-71
2021/11/25 05:05:23;;;;;;;109.47;61.30;;;5.50;99.90;;;;;;5049105;28;20118;-71
2021/11/25 05:07:49;;;;;;;102.05;61.22;;;5.50;99.90;;;;;;5069445;28;20050;-71
2021/11/25 05:10:15;;;;;;;109.63;63.40;;;5.50;99.90;;;;;;5082762;28;20529;-71
2021/11/25 05:12:42;;;;;;;105.93;63.23;;;5.50;99.90;;;;;;5083178;28;20044;-71
2021/11/25 05:15:11;;;;;;;101.53;61.97;;;5.50;99.90;;;;;;5048480;28;20067;-71
2021/11/25 05:17:38;;;;;;;104.28;64.82;;;5.40;99.90;;;;;;5077284;28;20040;-71
2021/11/25 05:20:06;;;;;;;98.03;62.17;;;5.30;99.90;;;;;;5053196;28;20094;-71
2021/11/25 05:22:32;;;;;;;102.00;65.13;;;5.30;99.90;;;;;;5061780;28;20047;-71
2021/11/25 05:25:01;;;;;;;97.33;62.13;;;5.30;99.90;;;;;;5067460;28;20725;-71
2021/11/25 05:27:27;;;;;;;101.97;63.83;;;5.30;99.90;;;;;;5062541;28;20119;-71
2021/11/25 05:29:53;;;;;;;100.47;64.67;;;5.20;99.90;;;;;;5062492;28;20036;-71
2021/11/25 05:32:19;;;;;;;105.37;65.60;;;5.20;99.90;;;;;;5051599;28;20247;-71
2021/11/25 05:34:47;;;;;;;108.87;67.63;;;5.10;99.90;;;;;;5075397;28;20376;-71
2021/11/25 05:37:15;;;;;;;109.17;68.07;;;5.10;99.90;;;;;;5050815;28;20037;-71
2021/11/25 05:39:42;;;;;;;98.80;64.97;;;5.10;99.90;;;;;;5084730;28;20498;-71
2021/11/25 05:42:08;;;;;;;97.70;65.93;;;5.10;99.90;;;;;;5059416;28;20029;-71
2021/11/25 05:44:35;;;;;;;97.77;66.57;;;5.10;99.90;;;;;;5077289;28;20058;-71
2021/11/25 05:47:04;;;;;;;100.93;67.63;;;5.10;99.90;;;;;;5073285;28;20055;-71
2021/11/25 05:49:30;;;;;;;103.10;69.03;;;5.10;99.90;;;;;;5068090;28;20612;-71
2021/11/25 05:51:56;;;;;;;97.87;66.27;;;5.20;99.90;;;;;;5065290;28;20495;-71
2021/11/25 05:54:22;;;;;;;102.43;69.50;;;5.10;99.90;;;;;;5075416;28;20059;-71
2021/11/25 05:56:48;;;;;;;105.67;69.50;;;5.10;99.90;;;;;;5061592;28;20041;-71
2021/11/25 05:59:13;;;;;;;100.80;69.67;;;5.20;99.90;;;;;;5064542;28;20040;-71
2021/11/25 06:01:39;;;;;;;99.83;67.27;;;5.10;99.90;;;;;;5053860;28;20039;-71
2021/11/25 06:04:05;;;;;;;103.70;71.73;;;5.20;99.90;;;;;;5068403;28;20040;-72
2021/11/25 06:06:31;;;;;;;99.40;67.30;;;5.10;99.90;;;;;;5050843;28;20093;-71
2021/11/25 06:08:57;;;;;;;103.53;70.00;;;5.10;99.90;;;;;;5085571;28;20040;-71
2021/11/25 06:11:22;;;;;;;108.57;70.00;;;5.10;99.90;;;;;;5061291;28;20044;-71
2021/11/25 06:13:49;;;;;;;101.20;70.33;;;5.10;99.90;;;;;;5052285;28;20345;-71
2021/11/25 06:16:15;;;;;;;101.63;68.67;;;5.10;99.90;;;;;;5080810;28;20129;-71
2021/11/25 06:18:40;;;;;;;96.80;67.77;;;5.10;99.90;;;;;;5066504;28;20047;-71
2021/11/25 06:21:06;;;;;;;103.47;71.07;;;5.10;99.90;;;;;;5052928;28;20055;-71
2021/11/25 06:23:32;;;;;;;103.30;70.40;;;5.00;99.90;;;;;;5050915;28;20121;-71
2021/11/25 06:26:01;;;;;;;99.07;70.37;;;5.10;99.90;;;;;;5054666;28;20045;-71
2021/11/25 06:28:27;;;;;;;102.90;72.10;;;5.10;99.90;;;;;;5054488;28;20500;-71
2021/11/25 06:30:53;;;;;;;100.63;71.90;;;5.10;99.90;;;;;;5067095;28;20040;-71
2021/11/25 06:33:19;;;;;;;102.80;71.33;;;5.20;99.90;;;;;;5049903;28;20477;-71
2021/11/25 06:35:44;;;;;;;97.00;69.90;;;5.10;99.90;;;;;;5019437;28;20040;-71
2021/11/25 06:38:10;;;;;;;102.43;69.97;;;5.10;99.90;;;;;;5047007;28;20051;-71
2021/11/25 06:40:37;;;;;;;97.53;69.00;;;5.10;99.90;;;;;;5058533;28;20036;-71
2021/11/25 06:43:07;;;;;;;100.70;70.93;;;5.20;99.90;;;;;;5052759;28;20044;-71
2021/11/25 06:45:34;;;;;;;101.82;70.18;;;5.10;99.90;;;;;;5067334;28;20512;-71
2021/11/25 06:48:00;;;;;;;100.40;71.23;;;5.10;99.90;;;;;;5051641;28;20056;-72
2021/11/25 06:50:27;;;;;;;101.70;71.27;;;5.10;99.90;;;;;;5069055;28;20044;-71
2021/11/25 06:52:53;;;;;;;102.37;72.27;;;5.10;99.90;;;;;;5075934;28;20036;-71
2021/11/25 06:55:19;;;;;;;101.77;72.33;;;5.10;99.90;;;;;;5073571;28;20048;-71
2021/11/25 06:57:48;;;;;;;106.23;69.67;;;5.10;99.90;;;;;;5061638;28;20075;-71
2021/11/25 07:00:15;;;;;;;96.23;70.30;;;5.10;99.90;;;;;;5059290;28;20399;-71
2021/11/25 07:02:42;;;;;;;95.57;70.73;;;5.10;99.90;;;;;;5077228;28;20414;-71
2021/11/25 07:05:08;;;;;;;97.13;68.17;;;5.10;99.90;;;;;;5055011;28;20036;-71
2021/11/25 07:07:35;;;;;;;98.47;71.97;;;5.10;99.90;;;;;;5072643;28;20044;-71
2021/11/25 07:10:08;;;;;;;98.10;70.17;;;5.10;99.90;;;;;;5072769;28;20051;-71
2021/11/25 07:12:34;;;;;;;96.63;69.70;;;5.10;99.90;;;;;;5073896;28;20132;-71
2021/11/25 07:15:02;;;;;;;99.53;70.47;;;5.00;99.90;;;;;;5058005;28;20490;-71
2021/11/25 07:17:28;;;;;;;100.33;68.80;;;5.10;99.90;;;;;;5075431;28;20041;-71
2021/11/25 07:19:54;;;;;;;100.93;72.03;;;5.10;99.90;;;;;;5054197;28;20067;-71
2021/11/25 07:22:20;;;;;;;100.07;70.97;;;5.10;99.90;;;;;;5041523;28;20503;-71
2021/11/25 07:24:46;;;;;;;104.03;72.47;;;5.00;99.90;;;;;;5067475;28;20159;-72
2021/11/25 07:27:12;;;;;;;102.17;71.50;;;5.00;99.90;;;;;;5053626;28;20048;-71
2021/11/25 07:29:38;;;;;;;99.13;71.03;;;5.20;99.90;;;;;;5076240;28;20132;-71
2021/11/25 07:32:04;;;;;;;101.00;72.27;;;5.10;99.90;;;;;;5075387;28;20032;-71
2021/11/25 07:34:31;;;;;;;101.63;70.37;;;5.10;99.90;;;;;;5053713;28;20481;-71
2021/11/25 07:36:57;;;;;;;100.27;71.13;;;5.10;99.90;;;;;;5064517;28;20049;-72
2021/11/25 07:39:23;;;;;;;108.03;72.57;;;5.10;99.90;;;;;;5063531;28;20087;-71
2021/11/25 07:41:49;;;;;;;100.63;70.73;;;5.10;99.90;;;;;;5068420;28;20096;-70
2021/11/25 07:44:15;;;;;;;104.53;72.27;;;5.10;99.90;;;;;;5052063;28;20513;-70
2021/11/25 07:46:41;;;;;;;112.87;75.33;;;5.10;99.90;;;;;;5053296;28;20041;-71
2021/11/25 07:49:07;;;;;;;106.85;74.18;;;5.10;99.90;;;;;;5058615;28;20615;-71
2021/11/25 07:51:33;;;;;;;109.23;72.00;;;5.20;99.90;;;;;;5071499;28;20048;-71
2021/11/25 07:54:01;;;;;;;109.30;73.63;;;5.20;99.90;;;;;;5053035;28;20039;-70
2021/11/25 07:56:27;;;;;;;110.53;73.27;;;5.20;99.90;;;;;;5060687;28;20123;-71
2021/11/25 07:58:53;;;;;;;113.63;75.53;;;5.20;99.90;;;;;;5062637;28;20579;-70
2021/11/25 08:01:19;;;;;;;111.70;74.07;;;5.20;99.90;;;;;;5036668;28;20059;-71
2021/11/25 08:03:45;;;;;;;112.40;75.50;;;5.20;99.90;;;;;;5053850;28;20510;-71
2021/11/25 08:06:11;;;;;;;123.77;77.80;;;5.20;99.90;;;;;;5072762;28;20040;-71
2021/11/25 08:08:36;;;;;;;116.87;74.97;;;5.20;99.90;;;;;;5069910;28;20047;-70
2021/11/25 08:11:03;;;;;;;116.20;77.07;;;5.20;99.90;;;;;;5053841;28;20656;-70
2021/11/25 08:13:32;;;;;;;112.70;75.40;;;5.20;99.90;;;;;;5064184;28;20078;-70
2021/11/25 08:15:59;;;;;;;112.30;75.47;;;5.30;99.90;;;;;;5051377;28;20044;-71
2021/11/25 08:18:25;;;;;;;111.33;74.23;;;5.30;99.90;;;;;;5063025;28;20512;-70
2021/11/25 08:20:51;;;;;;;113.07;74.90;;;5.40;99.90;;;;;;5067807;28;20033;-71
2021/11/25 08:23:16;;;;;;;115.03;74.93;;;5.30;99.90;;;;;;5075033;28;20040;-70
2021/11/25 08:25:42;;;;;;;118.53;74.87;;;5.30;99.90;;;;;;5053162;28;20040;-71
2021/11/25 08:28:08;;;;;;;115.43;73.80;;;5.30;99.90;;;;;;5060420;28;20487;-71
2021/11/25 08:30:35;;;;;;;118.43;76.20;;;5.30;99.90;;;;;;5053654;28;20105;-71
2021/11/25 08:33:01;;;;;;;124.07;78.30;;;5.30;99.90;;;;;;5050690;28;20036;-71
2021/11/25 08:35:29;;;;;;;122.57;77.83;;;5.30;99.90;;;;;;5056320;28;20045;-72
2021/11/25 08:37:56;;;;;;;131.73;78.53;;;5.30;99.90;;;;;;5037816;28;20040;-71
2021/11/25 08:40:22;;;;;;;130.10;79.07;;;5.30;99.90;;;;;;5065021;28;20445;-72
2021/11/25 08:42:48;;;;;;;137.63;83.07;;;5.30;99.90;;;;;;5046239;28;20539;-71
2021/11/25 08:45:18;;;;;;;127.10;80.17;;;5.30;99.90;;;;;;5051368;28;20378;-71
2021/11/25 08:47:44;;;;;;;153.10;83.87;;;5.30;99.90;;;;;;5051400;28;20055;-71
2021/11/25 08:50:11;;;;;;;156.20;86.80;;;5.40;99.90;;;;;;5064209;28;20548;-71
2021/11/25 08:52:37;;;;;;;158.90;87.45;;;5.40;99.90;;;;;;5068645;28;20052;-71
2021/11/25 08:55:04;;;;;;;175.30;89.70;;;5.40;99.90;;;;;;5067286;28;20499;-72
2021/11/25 08:57:30;;;;;;;153.60;86.30;;;5.40;99.90;;;;;;5065707;28;20078;-72
2021/11/25 08:59:56;;;;;;;145.00;83.20;;;5.40;99.90;;;;;;5067312;28;20147;-71
2021/11/25 09:02:22;;;;;;;178.32;92.80;;;5.40;99.90;;;;;;5092666;28;20425;-72
2021/11/25 09:04:48;;;;;;;177.43;89.85;;;5.40;99.90;;;;;;5050393;28;20055;-71
2021/11/25 09:07:14;;;;;;;182.20;89.43;;;5.40;99.90;;;;;;5065890;28;20041;-71
2021/11/25 09:09:40;;;;;;;186.80;91.53;;;5.40;99.90;;;;;;5063368;28;20048;-70
2021/11/25 09:12:06;;;;;;;179.77;90.80;;;5.50;99.90;;;;;;5070618;28;20048;-70
2021/11/25 09:14:32;;;;;;;164.48;85.03;;;5.60;99.90;;;;;;5052089;28;20736;-70
2021/11/25 09:17:01;;;;;;;178.60;88.95;;;5.60;99.90;;;;;;5065197;28;20127;-70
2021/11/25 09:19:27;;;;;;;181.70;91.17;;;5.60;99.90;;;;;;5051758;28;20047;-70
2021/11/25 09:21:55;;;;;;;178.35;90.65;;;5.70;99.90;;;;;;5049111;28;20047;-73
2021/11/25 09:24:21;;;;;;;170.13;86.60;;;5.80;99.90;;;;;;5053245;28;20394;-70
2021/11/25 09:26:46;;;;;;;176.47;88.87;;;5.80;99.90;;;;;;5082690;28;20559;-70
2021/11/25 09:29:14;;;;;;;183.87;90.63;;;6.00;99.90;;;;;;5078024;28;20033;-71
2021/11/25 09:31:40;;;;;;;186.63;92.53;;;5.90;99.90;;;;;;5064976;28;20457;-73
2021/11/25 09:34:07;;;;;;;198.20;92.70;;;6.00;99.90;;;;;;5048780;28;20111;-71
2021/11/25 09:36:34;;;;;;;181.88;88.70;;;6.00;99.90;;;;;;5073551;28;20047;-73
2021/11/25 09:39:02;;;;;;;191.73;86.88;;;6.00;99.90;;;;;;5050252;28;20123;-73
2021/11/25 09:41:31;;;;;;;206.20;90.03;;;6.10;99.90;;;;;;5052351;28;20328;-70
2021/11/25 09:43:57;;;;;;;179.80;88.30;;;6.10;99.90;;;;;;5056191;28;20063;-70
2021/11/25 09:46:23;;;;;;;196.00;92.05;;;6.00;99.90;;;;;;5035734;28;20048;-73
2021/11/25 09:48:52;;;;;;;182.18;89.57;;;6.10;99.90;;;;;;5063561;28;20048;-70
2021/11/25 09:51:19;;;;;;;200.82;91.70;;;6.10;99.90;;;;;;5073451;28;20043;-71
2021/11/25 09:53:45;;;;;;;171.60;87.88;;;6.10;99.90;;;;;;5046204;28;20538;-71
2021/11/25 09:56:11;;;;;;;179.83;84.53;;;6.20;99.90;;;;;;5032721;28;20047;-71
2021/11/25 09:58:37;;;;;;;190.18;89.55;;;6.20;99.90;;;;;;5069542;28;20060;-71
2021/11/25 10:01:08;;;;;;;182.90;87.97;;;6.30;99.90;;;;;;5070395;28;20054;-72
2021/11/25 10:03:35;;;;;;;167.30;84.95;;;6.30;99.90;;;;;;5079356;28;20049;-71
2021/11/25 10:06:02;;;;;;;165.90;82.43;;;6.40;99.90;;;;;;5057511;28;20403;-72
2021/11/25 10:08:32;;;;;;;178.10;86.32;;;6.50;99.90;;;;;;5049640;28;20039;-72
2021/11/25 10:11:01;;;;;;;152.23;78.95;;;6.60;99.90;;;;;;5051863;28;20051;-71
2021/11/25 10:13:45;;;;;;;136.18;75.97;;;6.80;99.90;;;;;;5070180;28;20063;-72
2021/11/25 10:16:14;;;;;;;144.15;75.00;;;6.90;99.90;;;;;;5073800;28;20086;-72
2021/11/25 10:18:42;;;;;;;133.02;75.97;;;7.00;99.90;;;;;;5076897;28;20546;-72
2021/11/25 10:21:13;;;;;;;134.63;72.50;;;7.10;99.90;;;;;;5057053;28;20048;-72
2021/11/25 10:23:39;;;;;;;132.95;70.00;;;7.20;99.90;;;;;;5056551;28;20048;-72
2021/11/25 10:26:18;;;;;;;122.47;67.30;;;7.20;99.90;;;;;;5065522;28;20398;-72
2021/11/25 10:28:55;;;;;;;119.28;65.35;;;7.20;99.90;;;;;;5080714;28;20044;-72
2021/11/25 10:31:31;;;;;;;125.78;66.65;;;7.10;99.90;;;;;;5068301;28;20100;-72
2021/11/25 10:34:03;;;;;;;110.95;63.13;;;7.10;99.90;;;;;;5069065;28;20064;-72
2021/11/25 10:41:55;;;;;;;110.50;61.05;;;7.20;99.90;;;;;;5066285;28;20128;-72
2021/11/25 10:44:25;;;;;;;118.30;61.53;;;7.20;99.90;;;;;;5044060;28;20036;-71
2021/11/25 10:47:06;;;;;;;118.25;63.83;;;7.30;99.90;;;;;;5053933;28;20139;-74
2021/11/25 10:49:37;;;;;;;117.63;60.95;;;7.20;99.90;;;;;;5058614;28;20101;-72
2021/11/25 10:52:13;;;;;;;120.72;61.60;;;7.40;99.90;;;;;;5073107;28;20032;-72
2021/11/25 10:54:49;;;;;;;117.50;60.55;;;7.40;99.90;;;;;;5071849;28;20083;-72
2021/11/25 10:57:15;;;;;;;120.57;62.83;;;7.50;99.90;;;;;;5055050;28;20041;-72
2021/11/25 10:59:47;;;;;;;113.05;58.70;;;7.60;99.90;;;;;;5066332;28;20098;-72
2021/11/25 11:02:22;;;;;;;104.97;57.95;;;7.60;99.90;;;;;;5062023;28;20059;-72
2021/11/25 11:04:48;;;;;;;108.00;59.97;;;7.70;99.90;;;;;;5069958;28;20087;-72
2021/11/25 11:07:29;;;;;;;92.20;53.55;;;7.70;99.90;;;;;;5038987;28;20036;-72
2021/11/25 11:09:56;;;;;;;93.82;51.55;;;7.70;99.90;;;;;;5074807;28;20132;-72
2021/11/25 11:12:41;;;;;;;92.43;52.20;;;7.70;99.90;;;;;;5053448;28;20053;-72
2021/11/25 11:15:27;;;;;;;91.47;48.47;;;7.80;99.90;;;;;;5073626;28;20043;-72
2021/11/25 11:20:52;;;;;;;85.60;48.67;;;7.80;99.90;;;;;;5075624;28;20052;-72
2021/11/25 11:23:21;;;;;;;84.82;48.38;;;7.90;99.90;;;;;;5073820;28;20071;-72
2021/11/25 11:25:48;;;;;;;74.72;43.63;;;7.90;99.90;;;;;;5073745;28;20098;-73
2021/11/25 11:28:15;;;;;;;57.58;35.28;;;7.90;99.90;;;;;;5056532;28;20044;-72
2021/11/25 11:30:41;;;;;;;54.97;32.20;;;7.90;99.90;;;;;;5058860;28;20048;-72
2021/11/25 11:33:11;;;;;;;47.42;30.67;;;7.90;99.90;;;;;;5045754;28;20471;-73
2021/11/25 11:35:38;;;;;;;48.92;29.65;;;7.90;99.90;;;;;;5056827;28;20043;-73
2021/11/25 11:38:13;;;;;;;43.85;28.42;;;7.90;99.90;;;;;;5066487;28;20660;-72
2021/11/25 11:40:39;;;;;;;42.10;27.63;;;7.90;99.90;;;;;;5075001;28;20399;-72
2021/11/25 11:43:06;;;;;;;40.95;22.35;;;8.00;99.90;;;;;;5067286;28;20840;-72
2021/11/25 11:45:34;;;;;;;44.30;23.77;;;8.00;99.90;;;;;;5055234;28;20110;-72
2021/11/25 11:48:03;;;;;;;35.42;21.60;;;8.10;99.90;;;;;;5070418;28;20048;-72
2021/11/25 11:50:36;;;;;;;33.53;19.55;;;8.10;99.90;;;;;;5054804;28;20473;-72
2021/11/25 11:53:08;;;;;;;31.00;18.30;;;8.20;99.90;;;;;;5071359;28;20052;-72
2021/11/25 11:55:37;;;;;;;30.45;16.98;;;8.20;99.90;;;;;;5056432;28;20060;-72
2021/11/25 11:58:24;;;;;;;21.05;12.70;;;8.30;99.90;;;;;;5074508;28;20040;-72
2021/11/25 12:00:55;;;;;;;21.33;9.40;;;8.40;99.90;;;;;;5057967;28;20044;-72
2021/11/25 12:03:37;;;;;;;18.05;7.50;;;8.50;99.90;;;;;;5055594;28;20060;-72
2021/11/25 12:06:05;;;;;;;15.45;6.78;;;8.60;99.90;;;;;;5064028;28;20127;-72
2021/11/25 12:08:34;;;;;;;16.80;5.18;;;8.60;99.90;;;;;;5071502;28;20113;-71
2021/11/25 12:11:05;;;;;;;12.43;4.55;;;8.60;99.90;;;;;;5071603;28;20510;-72
2021/11/25 12:13:40;;;;;;;12.18;3.80;;;8.60;99.90;;;;;;5067626;28;20048;-72
2021/11/25 12:16:18;;;;;;;12.32;2.90;;;8.50;99.90;;;;;;5072991;28;20039;-73
2021/11/25 12:18:54;;;;;;;11.05;2.60;;;8.50;99.90;;;;;;5063844;28;20048;-73
2021/11/25 12:22:02;;;;;;;11.10;2.13;;;8.50;99.90;;;;;;5078137;28;20130;-72
2021/11/25 12:25:01;;;;;;;11.93;1.92;;;8.40;99.90;;;;;;5069341;28;20056;-72
2021/11/25 12:27:34;;;;;;;13.55;2.08;;;8.30;99.90;;;;;;5054684;28;20044;-72
2021/11/25 12:30:02;;;;;;;10.77;1.60;;;8.30;99.90;;;;;;5067489;28;20067;-72
2021/11/25 12:32:38;;;;;;;10.68;2.58;;;8.40;99.90;;;;;;5069130;28;20049;-72
2021/11/25 12:35:17;;;;;;;14.65;1.95;;;8.50;99.90;;;;;;5081495;28;20068;-71
2021/11/25 12:40:17;;;;;;;15.70;3.13;;;8.60;99.90;;;;;;5066974;28;20173;-72
2021/11/25 12:42:46;;;;;;;7.18;1.25;;;8.60;99.90;;;;;;5067598;28;20490;-72
2021/11/25 12:45:22;;;;;;;13.85;2.13;;;8.70;99.90;;;;;;5053662;28;20045;-72
2021/11/25 12:47:48;;;;;;;12.20;2.13;;;8.70;99.90;;;;;;5049041;28;20037;-72